Time;durP1;ratioP1;P1;durP2;ratioP2;P2;SDS_P1;SDS_P2;PMS_P1;PMS_P2;Temp;Humidity;BMP_temperature;BMP_pressure;BME280_temperature;BME280_humidity;BME280_pressure;Samples;Min_cycle;Max_cycle;Signal;HPM_P1;HPM_P2
2023/12/05 00:04:09;;;;;;;3.85;1.77;;;16.70;76.30;;;;;;10598375;27;20062;-55
2023/12/05 00:09:12;;;;;;;3.57;1.70;;;16.70;76.20;;;;;;10566816;27;20075;-56
2023/12/05 00:14:15;;;;;;;3.30;1.70;;;16.70;76.20;;;;;;10560585;27;20058;-54
2023/12/05 00:19:17;;;;;;;3.88;2.17;;;16.70;76.20;;;;;;10559356;28;20058;-56
2023/12/05 00:24:19;;;;;;;4.93;1.70;;;16.70;76.20;;;;;;10570500;27;20050;-53
2023/12/05 00:29:22;;;;;;;3.23;2.03;;;16.70;76.30;;;;;;10570302;27;20050;-52
2023/12/05 00:34:24;;;;;;;2.50;1.80;;;16.70;76.30;;;;;;10575111;27;20495;-57
2023/12/05 00:39:26;;;;;;;2.43;1.73;;;16.70;76.20;;;;;;10571755;27;20039;-53
2023/12/05 00:44:29;;;;;;;2.03;1.40;;;16.60;76.20;;;;;;10567962;27;20060;-56
2023/12/05 00:49:32;;;;;;;2.85;1.20;;;16.60;76.10;;;;;;10569241;27;20061;-53
2023/12/05 00:54:34;;;;;;;4.63;1.75;;;16.70;76.10;;;;;;10583234;27;20433;-55
2023/12/05 00:59:37;;;;;;;2.60;1.93;;;16.60;76.10;;;;;;10577313;27;20036;-55
2023/12/05 01:04:39;;;;;;;3.13;1.73;;;16.60;76.20;;;;;;10573538;27;20062;-57
2023/12/05 01:09:42;;;;;;;2.97;1.77;;;16.60;76.10;;;;;;10574028;27;20074;-56
2023/12/05 01:14:45;;;;;;;3.22;1.50;;;16.60;76.10;;;;;;10575295;27;20511;-52
2023/12/05 01:19:46;;;;;;;2.28;1.40;;;16.60;76.10;;;;;;10572200;27;20078;-55
2023/12/05 01:24:54;;;;;;;3.80;1.77;;;16.60;76.10;;;;;;10571541;27;20058;-54
2023/12/05 01:29:57;;;;;;;3.22;1.67;;;16.60;76.20;;;;;;10568401;27;20075;-54
2023/12/05 01:34:59;;;;;;;2.67;1.45;;;16.60;76.20;;;;;;10575305;27;20189;-56
2023/12/05 01:40:01;;;;;;;4.80;2.00;;;16.60;76.20;;;;;;10571129;27;20070;-55
2023/12/05 01:45:06;;;;;;;4.17;3.47;;;16.60;76.10;;;;;;10562466;27;20472;-56
2023/12/05 01:50:10;;;;;;;2.53;1.70;;;16.60;76.00;;;;;;10567209;27;20062;-56
2023/12/05 01:55:12;;;;;;;3.63;1.92;;;16.60;76.10;;;;;;10565943;27;21376;-56
2023/12/05 02:00:17;;;;;;;3.90;1.97;;;16.50;76.10;;;;;;10567881;27;20060;-56
2023/12/05 02:05:19;;;;;;;2.38;1.75;;;16.50;76.10;;;;;;10562151;27;20063;-56
2023/12/05 02:10:21;;;;;;;2.75;1.55;;;16.50;76.60;;;;;;10569969;27;20056;-56
2023/12/05 02:15:24;;;;;;;1.77;1.33;;;16.50;76.00;;;;;;10570930;27;20138;-57
2023/12/05 02:20:33;;;;;;;2.47;1.77;;;16.50;76.00;;;;;;10567829;27;20047;-57
2023/12/05 02:25:47;;;;;;;2.25;1.73;;;16.50;76.00;;;;;;10563348;27;20863;-55
2023/12/05 02:30:52;;;;;;;2.53;1.33;;;16.50;76.00;;;;;;10560329;27;20059;-57
2023/12/05 02:36:03;;;;;;;1.98;1.40;;;16.50;76.00;;;;;;10565760;27;20058;-53
2023/12/05 02:41:12;;;;;;;2.35;1.70;;;16.50;76.00;;;;;;10567867;27;20438;-57
2023/12/05 02:46:18;;;;;;;1.98;1.38;;;16.40;76.00;;;;;;10557531;27;20048;-54
2023/12/05 02:51:20;;;;;;;1.88;1.60;;;16.40;76.00;;;;;;10569548;27;20055;-53
2023/12/05 02:56:23;;;;;;;2.67;1.70;;;16.40;76.10;;;;;;10571714;27;20372;-55
2023/12/05 03:01:26;;;;;;;2.33;1.48;;;16.40;76.00;;;;;;10569021;27;20054;-55
2023/12/05 03:06:28;;;;;;;2.13;1.55;;;16.40;76.00;;;;;;10574037;27;20430;-56
2023/12/05 03:11:30;;;;;;;2.60;1.70;;;16.40;76.10;;;;;;10572143;27;20598;-55
2023/12/05 03:16:33;;;;;;;4.45;3.15;;;16.40;76.00;;;;;;10570691;27;20485;-55
2023/12/05 03:21:35;;;;;;;2.55;1.45;;;16.40;76.00;;;;;;10569127;27;20051;-55
2023/12/05 03:26:37;;;;;;;1.90;1.60;;;16.40;75.90;;;;;;10573382;27;20055;-56
2023/12/05 03:31:41;;;;;;;2.20;1.40;;;16.40;76.00;;;;;;10573006;27;20053;-52
2023/12/05 03:36:43;;;;;;;1.42;1.17;;;16.40;76.00;;;;;;10568500;27;20042;-55
2023/12/05 03:41:46;;;;;;;3.87;1.47;;;16.40;76.00;;;;;;10573094;27;20494;-55
2023/12/05 03:46:49;;;;;;;2.78;1.45;;;16.40;75.90;;;;;;10572183;27;20769;-53
2023/12/05 03:51:51;;;;;;;2.60;1.52;;;16.40;75.90;;;;;;10565250;27;20048;-52
2023/12/05 03:56:53;;;;;;;1.70;1.57;;;16.40;75.80;;;;;;10563680;27;20056;-58
2023/12/05 04:15:32;;;;;;;1.90;1.42;;;16.40;75.10;;;;;;10619956;27;20131;-58
2023/12/05 04:20:34;;;;;;;1.70;1.38;;;16.40;75.60;;;;;;10587666;27;20051;-57
2023/12/05 04:25:37;;;;;;;2.08;1.60;;;16.40;75.50;;;;;;10583974;27;20062;-56
2023/12/05 04:30:40;;;;;;;1.33;1.23;;;16.40;75.50;;;;;;10578713;27;20059;-55
2023/12/05 04:35:42;;;;;;;1.33;1.15;;;16.40;75.50;;;;;;10583712;27;20888;-53
2023/12/05 04:40:43;;;;;;;1.53;1.23;;;16.40;75.30;;;;;;10579495;27;20059;-57
2023/12/05 04:45:47;;;;;;;1.20;0.90;;;16.50;74.90;;;;;;10583306;27;20067;-58
2023/12/05 04:50:48;;;;;;;3.15;1.67;;;16.80;74.40;;;;;;10582398;27;20083;-54
2023/12/05 04:55:50;;;;;;;1.53;1.17;;;17.00;74.20;;;;;;10582183;27;20405;-56
2023/12/05 05:00:54;;;;;;;2.40;0.88;;;17.20;74.00;;;;;;10580433;27;20055;-54
2023/12/05 05:05:56;;;;;;;1.10;0.98;;;17.30;73.70;;;;;;10578822;27;20047;-53
2023/12/05 05:10:58;;;;;;;1.60;1.37;;;17.40;73.40;;;;;;10579453;27;20058;-57
2023/12/05 05:16:01;;;;;;;1.48;1.17;;;17.50;73.10;;;;;;10579071;27;20055;-54
2023/12/05 05:21:03;;;;;;;1.23;1.13;;;17.70;73.10;;;;;;10579369;27;20059;-57
2023/12/05 05:26:05;;;;;;;1.95;1.10;;;17.70;72.90;;;;;;10556187;28;20142;-56
2023/12/05 05:31:09;;;;;;;1.08;0.98;;;17.80;72.80;;;;;;10549505;27;20136;-56
2023/12/05 05:36:14;;;;;;;1.50;1.10;;;17.80;72.90;;;;;;10551304;27;20143;-57
2023/12/05 05:41:16;;;;;;;1.60;0.90;;;17.80;72.90;;;;;;10551089;27;20143;-54
2023/12/05 05:46:19;;;;;;;2.60;1.17;;;17.80;73.00;;;;;;10551425;28;20043;-56
2023/12/05 05:51:21;;;;;;;4.28;3.05;;;17.80;73.00;;;;;;10551960;27;20044;-58
2023/12/05 05:56:23;;;;;;;1.33;1.08;;;17.80;73.00;;;;;;10550461;27;20419;-57
2023/12/05 06:01:26;;;;;;;1.35;1.05;;;17.80;73.10;;;;;;10551635;27;20058;-58
2023/12/05 06:06:28;;;;;;;1.77;1.20;;;17.80;73.30;;;;;;10552844;27;20055;-56
2023/12/05 06:11:30;;;;;;;1.43;1.00;;;17.80;73.30;;;;;;10551809;27;20493;-56
2023/12/05 06:16:33;;;;;;;3.97;2.47;;;17.80;73.30;;;;;;10546142;27;20162;-54
2023/12/05 06:21:35;;;;;;;6.35;1.50;;;17.70;73.30;;;;;;10546693;27;20058;-55
2023/12/05 06:26:37;;;;;;;11.47;7.30;;;17.80;73.40;;;;;;10550001;27;20044;-55
2023/12/05 06:31:40;;;;;;;8.53;1.83;;;17.80;73.40;;;;;;10549220;27;20047;-54
2023/12/05 06:36:42;;;;;;;2.63;1.40;;;17.80;73.30;;;;;;10553308;27;20085;-59
2023/12/05 06:41:44;;;;;;;3.83;2.72;;;17.80;73.30;;;;;;10552377;28;20127;-55
2023/12/05 06:46:47;;;;;;;1.73;0.93;;;17.80;73.20;;;;;;10554253;27;20048;-54
2023/12/05 06:51:55;;;;;;;6.00;2.33;;;17.80;73.20;;;;;;10544963;27;20044;-55
2023/12/05 06:56:57;;;;;;;5.40;1.40;;;17.80;73.10;;;;;;10543820;27;20191;-54
2023/12/05 07:02:00;;;;;;;2.23;1.20;;;17.70;73.20;;;;;;10544236;27;20165;-56
2023/12/05 07:07:02;;;;;;;1.63;1.38;;;17.70;73.20;;;;;;10541602;27;20481;-56
2023/12/05 07:12:05;;;;;;;2.63;1.27;;;17.70;73.20;;;;;;10544808;28;20524;-57
2023/12/05 07:17:08;;;;;;;1.52;0.88;;;17.70;73.30;;;;;;10545520;27;20488;-55
2023/12/05 07:22:10;;;;;;;4.88;1.30;;;17.60;73.30;;;;;;10545445;27;20059;-57
2023/12/05 07:27:12;;;;;;;6.38;1.25;;;17.60;73.40;;;;;;10540675;28;20693;-57
2023/12/05 07:32:15;;;;;;;1.73;1.10;;;17.60;73.30;;;;;;10545127;28;20055;-54
2023/12/05 07:37:17;;;;;;;6.63;1.15;;;17.70;73.20;;;;;;10546505;27;20052;-56
2023/12/05 07:42:19;;;;;;;3.50;1.10;;;17.70;73.00;;;;;;10543860;28;20048;-54
2023/12/05 07:47:23;;;;;;;3.97;1.15;;;17.60;73.00;;;;;;10542308;27;20044;-53
2023/12/05 07:52:26;;;;;;;2.28;1.40;;;17.60;73.10;;;;;;10543910;27;20063;-56
2023/12/05 07:57:28;;;;;;;1.92;1.25;;;17.60;73.10;;;;;;10543883;27;20494;-51
2023/12/05 08:02:32;;;;;;;2.20;1.17;;;17.60;73.10;;;;;;10541114;27;20056;-55
2023/12/05 08:07:34;;;;;;;4.15;2.38;;;17.60;73.10;;;;;;10543396;28;20476;-55
2023/12/05 08:12:36;;;;;;;1.97;1.07;;;17.50;73.00;;;;;;10541860;28;20536;-55
2023/12/05 08:17:39;;;;;;;5.07;1.50;;;17.60;73.30;;;;;;10543095;28;20058;-54
2023/12/05 08:22:41;;;;;;;6.75;1.58;;;17.50;73.40;;;;;;10541309;28;20093;-55
2023/12/05 08:27:43;;;;;;;3.50;1.37;;;17.60;73.30;;;;;;10539538;28;20055;-56
2023/12/05 08:32:46;;;;;;;1.30;1.20;;;17.60;73.10;;;;;;10547770;28;20051;-57
2023/12/05 08:37:48;;;;;;;2.10;1.20;;;17.70;73.00;;;;;;10538481;28;21167;-56
2023/12/05 08:42:50;;;;;;;2.33;1.20;;;17.70;73.00;;;;;;10538906;28;20048;-59
2023/12/05 08:47:54;;;;;;;2.07;1.30;;;17.70;73.10;;;;;;10537989;28;20066;-56
2023/12/05 08:52:56;;;;;;;2.88;1.40;;;17.60;73.10;;;;;;10540325;28;20062;-54
2023/12/05 08:57:58;;;;;;;5.53;2.03;;;17.60;73.30;;;;;;10537438;28;20083;-57
2023/12/05 09:03:01;;;;;;;4.70;1.77;;;17.60;73.40;;;;;;10545159;27;20860;-56
2023/12/05 09:08:03;;;;;;;5.63;2.50;;;17.50;73.20;;;;;;10544551;28;20608;-57
2023/12/05 09:13:05;;;;;;;10.47;3.77;;;17.20;73.90;;;;;;10542377;27;20047;-52
2023/12/05 09:18:09;;;;;;;7.73;4.37;;;17.10;73.90;;;;;;10534254;27;20960;-55
2023/12/05 09:23:12;;;;;;;12.88;4.30;;;17.00;73.80;;;;;;10540009;27;20704;-55
2023/12/05 09:28:13;;;;;;;7.43;4.15;;;17.00;73.60;;;;;;10541115;27;20081;-57
2023/12/05 09:33:17;;;;;;;13.70;3.93;;;17.00;73.90;;;;;;10543836;27;20554;-54
2023/12/05 09:38:19;;;;;;;14.35;3.75;;;17.00;74.10;;;;;;10541108;27;23515;-56
2023/12/05 09:43:23;;;;;;;12.33;4.43;;;17.30;73.50;;;;;;10538142;27;20179;-53
2023/12/05 09:48:28;;;;;;;13.18;4.97;;;17.50;73.10;;;;;;10533407;27;20135;-56
2023/12/05 09:53:31;;;;;;;11.60;4.60;;;17.50;73.00;;;;;;10539707;27;20089;-56
2023/12/05 09:58:33;;;;;;;9.43;3.80;;;17.50;73.00;;;;;;10537991;27;20048;-56
2023/12/05 10:03:40;;;;;;;10.93;3.30;;;17.50;73.00;;;;;;10537855;28;20048;-52
2023/12/05 10:08:43;;;;;;;11.65;3.33;;;17.50;73.00;;;;;;10539898;27;20058;-56
2023/12/05 10:13:45;;;;;;;13.20;4.15;;;17.50;73.00;;;;;;10539198;27;20422;-55
2023/12/05 10:18:49;;;;;;;10.32;3.83;;;17.50;73.00;;;;;;10532469;27;20067;-54
2023/12/05 10:23:52;;;;;;;13.95;3.80;;;17.50;72.90;;;;;;10537838;27;20720;-55
2023/12/05 10:28:56;;;;;;;8.05;3.22;;;17.60;73.00;;;;;;10538123;27;20818;-56
2023/12/05 10:34:06;;;;;;;9.57;3.65;;;17.50;73.00;;;;;;10540321;27;20109;-54
2023/12/05 10:39:08;;;;;;;10.43;3.47;;;17.50;73.00;;;;;;10540564;27;20106;-53
2023/12/05 10:44:11;;;;;;;12.57;3.83;;;17.60;73.00;;;;;;10537824;27;20750;-54
2023/12/05 10:49:14;;;;;;;15.55;4.13;;;17.60;73.00;;;;;;10537056;27;20051;-53
2023/12/05 10:54:18;;;;;;;8.85;3.28;;;17.60;73.00;;;;;;10536204;27;20054;-55
2023/12/05 10:59:20;;;;;;;7.00;3.08;;;17.60;73.10;;;;;;10540203;27;20055;-58
2023/12/05 11:04:24;;;;;;;8.95;3.60;;;17.60;73.20;;;;;;10536968;27;20214;-56
2023/12/05 11:09:26;;;;;;;8.10;4.72;;;17.50;73.30;;;;;;10539937;27;20422;-57
2023/12/05 11:14:31;;;;;;;7.87;3.13;;;17.50;73.40;;;;;;10538689;27;20076;-53
2023/12/05 11:19:46;;;;;;;8.43;2.60;;;17.50;73.40;;;;;;10535290;27;20085;-57
2023/12/05 11:25:12;;;;;;;7.43;2.33;;;17.60;73.40;;;;;;10542764;27;20051;-55
2023/12/05 11:30:50;;;;;;;10.43;3.00;;;17.60;73.40;;;;;;10539910;27;20494;-56
2023/12/05 11:36:06;;;;;;;6.57;2.83;;;17.60;73.50;;;;;;10538909;28;20123;-56
2023/12/05 11:41:12;;;;;;;10.80;3.38;;;17.60;73.50;;;;;;10539062;27;20078;-56
2023/12/05 11:46:18;;;;;;;17.60;3.80;;;17.60;73.60;;;;;;10537125;28;20043;-53
2023/12/05 11:51:21;;;;;;;19.00;3.55;;;17.60;73.50;;;;;;10539465;27;20082;-55
2023/12/05 11:56:23;;;;;;;23.13;3.25;;;17.60;73.60;;;;;;10541622;28;20052;-56
2023/12/05 12:01:25;;;;;;;16.83;9.07;;;17.60;73.70;;;;;;10535939;27;20061;-53
2023/12/05 12:06:28;;;;;;;13.90;3.33;;;17.50;73.20;;;;;;10540894;28;20185;-56
2023/12/05 12:11:30;;;;;;;16.55;3.80;;;17.50;73.90;;;;;;10534618;28;20060;-57
2023/12/05 12:16:32;;;;;;;14.83;3.23;;;17.50;73.90;;;;;;10528195;28;20046;-57
2023/12/05 12:21:36;;;;;;;9.77;2.72;;;17.50;74.10;;;;;;10526313;28;20044;-55
2023/12/05 12:26:37;;;;;;;19.60;3.78;;;17.50;74.10;;;;;;10528713;28;20097;-57
2023/12/05 12:31:40;;;;;;;11.77;2.80;;;17.50;74.00;;;;;;10535917;28;20063;-57
2023/12/05 12:36:43;;;;;;;8.25;2.67;;;17.50;74.00;;;;;;10544822;28;20892;-56
2023/12/05 12:41:45;;;;;;;16.80;2.97;;;17.50;74.20;;;;;;10547401;27;20047;-54
2023/12/05 12:46:48;;;;;;;7.95;2.75;;;17.40;74.30;;;;;;10547590;27;20055;-56
2023/12/05 12:51:53;;;;;;;7.43;2.67;;;17.40;74.50;;;;;;10546447;27;20060;-55
2023/12/05 12:56:56;;;;;;;5.93;2.92;;;17.40;74.70;;;;;;10544832;27;20047;-60
2023/12/05 13:01:58;;;;;;;5.50;2.95;;;17.30;74.80;;;;;;10545022;28;20055;-58
2023/12/05 13:07:01;;;;;;;7.37;2.80;;;17.30;75.00;;;;;;10545065;28;20047;-56
2023/12/05 13:12:04;;;;;;;8.55;2.45;;;17.30;75.10;;;;;;10538196;28;20109;-58
2023/12/05 13:17:08;;;;;;;7.45;2.58;;;17.30;75.30;;;;;;10543476;27;20086;-56
2023/12/05 13:22:11;;;;;;;5.43;2.80;;;17.30;75.30;;;;;;10541626;27;20062;-57
2023/12/05 13:27:13;;;;;;;6.07;3.83;;;17.30;75.40;;;;;;10545708;27;20054;-56
2023/12/05 13:32:15;;;;;;;8.73;2.67;;;17.20;75.50;;;;;;10539772;27;20954;-55
2023/12/05 13:37:18;;;;;;;6.90;2.37;;;17.20;75.40;;;;;;10538036;27;20531;-56
2023/12/05 13:42:20;;;;;;;3.92;2.75;;;17.20;75.60;;;;;;10543609;27;20169;-57
2023/12/05 13:47:22;;;;;;;7.47;2.73;;;17.20;75.70;;;;;;10541137;27;20047;-56
2023/12/05 13:52:26;;;;;;;6.07;2.10;;;17.20;75.60;;;;;;10544283;27;20131;-61
2023/12/05 13:57:28;;;;;;;5.28;2.70;;;17.20;75.50;;;;;;10540825;27;20717;-56
2023/12/05 14:02:29;;;;;;;3.93;1.83;;;17.30;75.40;;;;;;10545397;27;20807;-57
2023/12/05 14:07:33;;;;;;;3.63;1.80;;;17.30;75.20;;;;;;10541851;27;20497;-54
2023/12/05 14:12:35;;;;;;;5.45;2.50;;;17.30;75.70;;;;;;10543366;28;20063;-54
2023/12/05 14:17:37;;;;;;;6.05;2.28;;;17.40;75.70;;;;;;10541224;27;20063;-53
2023/12/05 14:22:41;;;;;;;4.28;1.80;;;17.40;75.20;;;;;;10536752;28;20413;-54
2023/12/05 14:27:43;;;;;;;3.53;1.60;;;17.40;75.20;;;;;;10541974;27;20054;-55
2023/12/05 14:32:45;;;;;;;6.07;1.75;;;17.50;75.10;;;;;;10540523;27;20055;-58
2023/12/05 14:37:48;;;;;;;2.80;2.33;;;17.50;75.10;;;;;;10541528;27;20081;-55
2023/12/05 14:42:51;;;;;;;2.78;1.95;;;17.60;75.20;;;;;;10533570;27;20694;-58
2023/12/05 14:47:53;;;;;;;2.47;1.80;;;17.70;74.90;;;;;;10544097;27;20050;-52
2023/12/05 14:52:57;;;;;;;3.45;2.85;;;17.90;74.50;;;;;;10535678;27;20048;-58
2023/12/05 14:57:59;;;;;;;4.40;3.85;;;18.00;74.20;;;;;;10534568;27;20399;-58
2023/12/05 15:03:01;;;;;;;3.13;2.00;;;18.10;74.10;;;;;;10535896;27;20075;-57
2023/12/05 15:08:04;;;;;;;6.00;5.07;;;18.20;74.10;;;;;;10540567;27;20762;-57
2023/12/05 15:13:06;;;;;;;4.30;2.60;;;18.20;73.80;;;;;;10534810;27;20484;-54
2023/12/05 15:18:08;;;;;;;5.67;3.80;;;18.20;73.90;;;;;;10536696;27;20062;-59
2023/12/05 15:23:11;;;;;;;3.10;2.20;;;18.20;74.10;;;;;;10534731;27;20040;-57
2023/12/05 15:28:14;;;;;;;4.50;2.67;;;18.30;73.90;;;;;;10534756;27;20056;-55
2023/12/05 15:33:16;;;;;;;5.00;1.70;;;18.20;74.10;;;;;;10536083;27;20166;-55
2023/12/05 15:38:20;;;;;;;5.23;3.17;;;18.30;74.40;;;;;;10535479;27;20101;-56
2023/12/05 15:43:21;;;;;;;5.10;1.63;;;18.30;74.20;;;;;;10535884;27;20561;-57
2023/12/05 15:48:23;;;;;;;2.13;1.33;;;18.30;74.30;;;;;;10539510;27;20055;-56
2023/12/05 15:53:27;;;;;;;5.37;1.80;;;18.20;74.40;;;;;;10539378;27;20082;-58
2023/12/05 15:58:28;;;;;;;8.30;4.10;;;18.30;74.50;;;;;;10540062;28;20129;-59
2023/12/05 16:03:30;;;;;;;2.90;1.37;;;18.20;74.50;;;;;;10539318;27;20090;-56
2023/12/05 16:08:34;;;;;;;3.50;2.27;;;18.30;74.70;;;;;;10541996;27;20145;-57
2023/12/05 16:13:38;;;;;;;5.40;2.10;;;18.30;74.70;;;;;;10546281;28;20451;-58
2023/12/05 16:18:40;;;;;;;4.10;1.42;;;18.30;74.70;;;;;;10548154;28;20176;-57
2023/12/05 16:23:44;;;;;;;2.40;1.33;;;18.30;74.80;;;;;;10549434;28;20071;-56
2023/12/05 16:28:46;;;;;;;3.53;1.95;;;18.30;74.70;;;;;;10536024;28;20058;-58
2023/12/05 16:33:48;;;;;;;5.40;1.50;;;18.30;74.70;;;;;;10537656;28;20961;-56
2023/12/05 16:38:51;;;;;;;4.30;2.92;;;18.30;74.40;;;;;;10538399;28;20052;-58
2023/12/05 16:43:53;;;;;;;3.95;1.80;;;18.20;74.40;;;;;;10529356;28;20434;-56
2023/12/05 16:48:55;;;;;;;2.30;1.37;;;18.20;74.20;;;;;;10533321;28;20044;-58
2023/12/05 16:53:58;;;;;;;2.30;1.20;;;18.10;74.40;;;;;;10534119;28;20827;-56
2023/12/05 16:59:02;;;;;;;4.57;1.52;;;18.20;74.40;;;;;;10536671;28;20051;-56
2023/12/05 17:04:04;;;;;;;3.83;1.65;;;18.10;74.30;;;;;;10534670;28;20054;-59
2023/12/05 17:09:08;;;;;;;2.85;1.50;;;18.10;74.50;;;;;;10535621;28;20493;-59
2023/12/05 17:14:10;;;;;;;2.10;1.20;;;18.00;74.30;;;;;;10537220;28;20150;-56
2023/12/05 17:19:12;;;;;;;3.28;1.23;;;18.00;74.60;;;;;;10536353;28;20749;-57
2023/12/05 17:24:15;;;;;;;2.93;1.20;;;18.00;74.50;;;;;;10545572;27;20051;-57
2023/12/05 17:29:17;;;;;;;5.32;2.38;;;18.00;74.30;;;;;;10541486;28;20462;-58
2023/12/05 17:34:19;;;;;;;6.33;4.27;;;18.00;74.30;;;;;;10543389;27;22127;-57
2023/12/05 17:39:23;;;;;;;1.45;0.93;;;18.00;74.10;;;;;;10541927;27;20835;-59
2023/12/05 17:44:24;;;;;;;1.95;1.17;;;18.00;74.30;;;;;;10545687;27;20098;-57
2023/12/05 17:49:26;;;;;;;2.57;1.43;;;18.00;74.10;;;;;;10541760;27;20051;-55
2023/12/05 17:54:30;;;;;;;1.83;0.87;;;17.70;74.60;;;;;;10541781;27;20063;-55
2023/12/05 17:59:32;;;;;;;1.23;1.10;;;17.80;74.60;;;;;;10535542;27;21424;-58
2023/12/05 18:04:34;;;;;;;2.60;0.88;;;17.90;74.50;;;;;;10545080;27;20055;-56
2023/12/05 18:09:38;;;;;;;4.57;1.53;;;17.90;74.50;;;;;;10538769;27;20040;-54
2023/12/05 18:14:40;;;;;;;3.65;1.25;;;17.90;74.40;;;;;;10542459;27;20600;-56
2023/12/05 18:19:43;;;;;;;3.03;1.23;;;17.90;74.60;;;;;;10536797;27;20143;-56
2023/12/05 18:24:47;;;;;;;4.65;2.70;;;17.90;74.80;;;;;;10539969;27;20580;-58
2023/12/05 18:29:49;;;;;;;4.38;2.00;;;17.90;74.30;;;;;;10539901;27;20119;-60
2023/12/05 18:34:52;;;;;;;4.87;1.90;;;17.80;74.80;;;;;;10541696;27;20052;-59
2023/12/05 18:39:56;;;;;;;6.18;2.40;;;17.50;75.00;;;;;;10542039;27;20481;-55
2023/12/05 18:44:57;;;;;;;5.30;2.35;;;17.40;75.30;;;;;;10540238;27;20050;-57
2023/12/05 18:49:59;;;;;;;6.00;2.50;;;17.30;75.30;;;;;;10542484;28;20040;-58
2023/12/05 18:55:05;;;;;;;5.07;2.88;;;17.30;75.20;;;;;;10540119;28;20047;-57
2023/12/05 19:00:08;;;;;;;5.35;2.65;;;17.30;75.30;;;;;;10535910;27;20062;-56
2023/12/05 19:05:09;;;;;;;;;;;17.80;75.70;;;;;;10540534;28;20048;-56
2023/12/05 19:10:13;;;;;;;6.72;2.95;;;18.10;74.60;;;;;;10540425;27;19928;-56
2023/12/05 19:15:15;;;;;;;9.27;3.83;;;17.90;75.00;;;;;;10538569;27;20052;-57
2023/12/05 19:20:17;;;;;;;5.65;3.03;;;17.70;74.60;;;;;;10537590;27;20047;-57
2023/12/05 19:25:21;;;;;;;7.13;3.13;;;17.60;75.20;;;;;;10536708;27;20047;-55
2023/12/05 19:30:23;;;;;;;4.28;2.70;;;17.50;76.00;;;;;;10537087;27;20055;-56
2023/12/05 19:35:28;;;;;;;8.65;2.95;;;17.80;75.70;;;;;;10541426;27;20058;-54
2023/12/05 19:40:35;;;;;;;5.47;2.30;;;18.10;75.10;;;;;;10529961;27;20047;-56
2023/12/05 19:45:37;;;;;;;5.80;2.17;;;18.30;75.00;;;;;;10534593;27;20059;-56
2023/12/05 19:50:39;;;;;;;6.35;2.75;;;18.30;74.90;;;;;;10534531;27;20062;-58
2023/12/05 19:55:47;;;;;;;5.87;2.47;;;18.30;74.90;;;;;;10533225;27;20062;-54
2023/12/05 20:00:49;;;;;;;7.13;2.75;;;18.30;75.20;;;;;;10536161;27;20927;-55
2023/12/05 20:05:51;;;;;;;14.57;2.63;;;18.30;75.00;;;;;;10534000;28;20048;-57
2023/12/05 20:10:54;;;;;;;8.85;2.40;;;18.40;75.10;;;;;;10529831;28;20074;-54
2023/12/05 20:15:57;;;;;;;20.45;2.95;;;18.40;75.00;;;;;;10531793;28;20193;-55
2023/12/05 20:20:59;;;;;;;13.13;3.17;;;18.40;74.90;;;;;;10525417;28;20053;-56
2023/12/05 20:26:02;;;;;;;15.57;2.97;;;18.40;74.70;;;;;;10528603;28;20047;-56
2023/12/05 20:31:05;;;;;;;9.98;3.53;;;18.40;74.60;;;;;;10531151;28;20142;-58
2023/12/05 20:36:07;;;;;;;8.90;3.00;;;18.40;74.50;;;;;;10530504;28;20124;-57
2023/12/05 20:41:10;;;;;;;9.38;2.90;;;18.40;74.40;;;;;;10532364;28;20058;-56
2023/12/05 20:46:13;;;;;;;11.45;2.88;;;18.50;74.90;;;;;;10529323;28;20087;-54
2023/12/05 20:51:15;;;;;;;13.30;3.70;;;18.50;74.30;;;;;;10532601;28;20048;-55
2023/12/05 20:56:19;;;;;;;4.60;2.47;;;18.50;74.20;;;;;;10535269;28;20047;-55
2023/12/05 21:01:21;;;;;;;9.15;2.58;;;18.50;74.10;;;;;;10540026;27;20101;-55
2023/12/05 21:06:23;;;;;;;12.57;3.20;;;18.50;74.10;;;;;;10538617;27;20055;-54
2023/12/05 21:11:26;;;;;;;9.02;3.33;;;18.50;74.10;;;;;;10537005;27;20074;-56
2023/12/05 21:16:28;;;;;;;13.18;2.92;;;18.50;74.10;;;;;;10538691;27;20043;-57
2023/12/05 21:21:30;;;;;;;8.37;3.03;;;18.50;74.00;;;;;;10544155;27;20912;-54
2023/12/05 21:26:33;;;;;;;9.37;3.00;;;18.50;74.00;;;;;;10540608;27;20547;-58
2023/12/05 21:31:35;;;;;;;18.70;4.13;;;18.50;73.90;;;;;;10549763;28;20474;-59
2023/12/05 21:36:37;;;;;;;7.70;2.95;;;18.50;73.90;;;;;;10542468;28;20055;-53
2023/12/05 21:41:41;;;;;;;9.93;2.63;;;18.50;73.90;;;;;;10539850;27;20868;-55
2023/12/05 21:46:42;;;;;;;6.78;2.78;;;18.50;74.00;;;;;;10540582;27;20569;-53
2023/12/05 21:51:45;;;;;;;7.43;3.20;;;18.50;74.10;;;;;;10538658;27;20055;-55
2023/12/05 21:56:48;;;;;;;8.07;3.13;;;18.40;74.00;;;;;;10536422;27;20079;-55
2023/12/05 22:01:50;;;;;;;7.07;2.75;;;18.40;74.20;;;;;;10541328;27;20058;-53
2023/12/05 22:06:52;;;;;;;6.95;2.80;;;18.30;74.20;;;;;;10544113;27;20595;-56
2023/12/05 22:11:56;;;;;;;10.10;3.63;;;18.30;74.30;;;;;;10537853;27;20649;-55
2023/12/05 22:16:58;;;;;;;7.80;3.47;;;18.30;74.40;;;;;;10548318;27;20237;-53
2023/12/05 22:22:00;;;;;;;4.68;2.75;;;18.20;74.60;;;;;;10549187;27;20047;-53
2023/12/05 22:27:04;;;;;;;11.02;2.97;;;18.20;74.80;;;;;;10550021;27;20059;-53
2023/12/05 22:32:06;;;;;;;4.32;3.03;;;18.20;74.80;;;;;;10548554;27;20051;-54
2023/12/05 22:37:08;;;;;;;;;;;18.10;74.70;;;;;;10550933;27;20438;-55
2023/12/05 22:42:11;;;;;;;8.20;3.80;;;18.10;74.80;;;;;;10545131;27;19935;-55
2023/12/05 22:47:13;;;;;;;6.38;3.25;;;18.10;74.90;;;;;;10532902;27;20058;-54
2023/12/05 22:52:15;;;;;;;7.97;3.38;;;18.00;74.80;;;;;;10543906;27;20098;-57
2023/12/05 22:57:18;;;;;;;4.82;3.30;;;18.00;74.80;;;;;;10545752;28;20051;-54
2023/12/05 23:02:20;;;;;;;8.25;4.20;;;18.00;74.80;;;;;;10546912;27;20064;-54
2023/12/05 23:07:22;;;;;;;11.15;4.50;;;18.00;74.90;;;;;;10543220;27;20521;-56
2023/12/05 23:12:26;;;;;;;9.03;4.00;;;18.00;74.80;;;;;;10543678;27;20050;-56
2023/12/05 23:17:27;;;;;;;7.45;3.95;;;17.90;74.80;;;;;;10545445;28;20452;-52
2023/12/05 23:22:29;;;;;;;8.37;3.00;;;17.90;74.80;;;;;;10546282;27;20059;-54
2023/12/05 23:27:33;;;;;;;7.28;3.45;;;17.90;74.80;;;;;;10545691;27;20512;-58
2023/12/05 23:32:35;;;;;;;6.38;4.00;;;17.90;74.80;;;;;;10542893;28;20044;-54
2023/12/05 23:37:37;;;;;;;6.60;3.42;;;17.80;74.80;;;;;;10543034;27;20048;-54
2023/12/05 23:42:40;;;;;;;7.47;4.72;;;17.80;74.70;;;;;;10543478;27;20098;-57
2023/12/05 23:47:42;;;;;;;8.65;4.65;;;17.80;74.70;;;;;;10542822;28;20805;-59
2023/12/05 23:52:44;;;;;;;8.37;4.23;;;17.80;74.80;;;;;;10547283;28;20123;-56
2023/12/05 23:57:47;;;;;;;6.53;4.35;;;17.70;74.70;;;;;;10547303;28;20556;-56
